Time;durP1;ratioP1;P1;durP2;ratioP2;P2;SDS_P1;SDS_P2;PMS_P1;PMS_P2;Temp;Humidity;BMP_temperature;BMP_pressure;BME280_temperature;BME280_humidity;BME280_pressure;Samples;Min_cycle;Max_cycle;Signal;HPM_P1;HPM_P2
2023/05/01 00:00:10;;;;;;;4.22;3.75;;;7.20;99.90;;;;;;4972460;28;20023;-79
2023/05/01 00:02:36;;;;;;;4.05;3.60;;;7.20;99.90;;;;;;4973818;28;20026;-80
2023/05/01 00:05:03;;;;;;;4.50;3.45;;;7.20;99.90;;;;;;4972360;28;20027;-79
2023/05/01 00:07:29;;;;;;;3.25;2.95;;;7.20;99.90;;;;;;4973514;28;20030;-80
2023/05/01 00:09:56;;;;;;;5.47;3.30;;;7.10;99.90;;;;;;4972784;28;20018;-79
2023/05/01 00:12:23;;;;;;;4.97;3.60;;;7.00;99.90;;;;;;4972642;28;20431;-79
2023/05/01 00:14:49;;;;;;;4.10;3.42;;;7.10;99.90;;;;;;4973459;28;20085;-79
2023/05/01 00:17:15;;;;;;;4.25;3.67;;;7.00;99.90;;;;;;4973292;28;20035;-79
2023/05/01 00:19:41;;;;;;;4.35;3.03;;;6.90;99.90;;;;;;4973678;28;20022;-79
2023/05/01 00:22:07;;;;;;;5.13;2.92;;;6.90;99.90;;;;;;4973541;28;20037;-79
2023/05/01 00:24:32;;;;;;;8.25;3.53;;;6.80;99.90;;;;;;4972224;28;20181;-80
2023/05/01 00:26:58;;;;;;;3.45;3.15;;;6.80;99.90;;;;;;4973559;28;20539;-80
2023/05/01 00:29:24;;;;;;;6.55;3.70;;;6.80;99.90;;;;;;4971858;28;20395;-80
2023/05/01 00:31:50;;;;;;;6.35;3.40;;;6.80;99.90;;;;;;4972193;28;20026;-79
2023/05/01 00:34:15;;;;;;;5.55;3.30;;;6.80;99.90;;;;;;4973606;28;20476;-79
2023/05/01 00:36:41;;;;;;;5.63;3.83;;;6.80;99.90;;;;;;4973144;28;20476;-80
2023/05/01 00:39:07;;;;;;;3.63;2.97;;;6.70;99.90;;;;;;4972228;28;20035;-80
2023/05/01 00:41:34;;;;;;;3.10;2.72;;;6.70;99.90;;;;;;4971004;28;20035;-80
2023/05/01 00:43:59;;;;;;;5.65;3.55;;;6.70;99.90;;;;;;4971716;28;20399;-79
2023/05/01 00:46:26;;;;;;;3.25;2.90;;;6.70;99.90;;;;;;4971753;28;20023;-81
2023/05/01 00:48:52;;;;;;;3.08;2.35;;;6.80;99.90;;;;;;4971810;28;20037;-80
2023/05/01 00:51:19;;;;;;;3.90;2.42;;;6.70;99.90;;;;;;4973235;28;20027;-79
2023/05/01 00:53:45;;;;;;;5.45;2.13;;;6.60;99.90;;;;;;4971072;28;20027;-80
2023/05/01 00:56:11;;;;;;;3.05;2.53;;;6.50;99.90;;;;;;4972913;28;20484;-80
2023/05/01 00:58:37;;;;;;;3.03;2.63;;;6.50;99.90;;;;;;4971502;28;20073;-79
2023/05/01 01:01:08;;;;;;;3.75;3.05;;;6.50;99.90;;;;;;4972032;28;20387;-80
2023/05/01 01:03:34;;;;;;;4.47;2.70;;;6.50;99.90;;;;;;4973310;28;20054;-80
2023/05/01 01:06:22;;;;;;;4.13;2.90;;;6.40;99.90;;;;;;4971690;28;20419;-79
2023/05/01 01:09:07;;;;;;;5.43;3.05;;;6.50;99.90;;;;;;4971433;28;20062;-79
2023/05/01 01:11:44;;;;;;;3.72;3.25;;;6.70;99.90;;;;;;4973183;28;20034;-79
2023/05/01 01:14:15;;;;;;;4.85;3.33;;;6.60;99.90;;;;;;4971917;28;20074;-79
2023/05/01 01:17:12;;;;;;;4.47;2.97;;;6.70;99.90;;;;;;4971442;28;20037;-80
2023/05/01 01:19:41;;;;;;;4.47;3.03;;;6.60;99.90;;;;;;4970977;28;20205;-79
2023/05/01 01:22:15;;;;;;;4.22;3.40;;;6.40;99.90;;;;;;4970808;28;20066;-80
2023/05/01 01:24:56;;;;;;;5.00;3.60;;;6.30;99.90;;;;;;4970805;28;20432;-79
2023/05/01 01:27:43;;;;;;;3.53;3.22;;;6.30;99.90;;;;;;4971450;28;20033;-79
2023/05/01 01:30:30;;;;;;;4.45;3.95;;;6.30;99.90;;;;;;4973148;28;20476;-79
2023/05/01 01:33:35;;;;;;;6.20;3.72;;;6.30;99.90;;;;;;4971717;28;20468;-80
2023/05/01 01:36:06;;;;;;;3.65;2.72;;;6.40;99.90;;;;;;4893978;29;20032;-79
2023/05/01 01:39:06;;;;;;;5.15;3.35;;;6.50;99.90;;;;;;4959491;28;20039;-80
2023/05/01 01:41:34;;;;;;;5.25;3.42;;;6.50;99.90;;;;;;4972761;28;20062;-79
2023/05/01 01:44:06;;;;;;;3.72;3.30;;;6.50;99.90;;;;;;4972793;28;20049;-79
2023/05/01 01:46:37;;;;;;;5.25;3.50;;;6.40;99.90;;;;;;4971315;28;20023;-80
2023/05/01 01:49:07;;;;;;;3.55;3.05;;;6.50;99.90;;;;;;4971308;28;20122;-79
2023/05/01 01:51:35;;;;;;;3.75;3.20;;;6.50;99.90;;;;;;4974951;28;20113;-79
2023/05/01 01:54:03;;;;;;;4.88;3.53;;;6.50;99.90;;;;;;4976382;28;20026;-79
2023/05/01 01:56:29;;;;;;;4.10;3.30;;;6.50;99.90;;;;;;4975870;28;20027;-79
2023/05/01 01:58:57;;;;;;;6.47;3.67;;;6.50;99.90;;;;;;4975915;28;20115;-80
2023/05/01 02:01:24;;;;;;;6.00;3.45;;;6.50;99.90;;;;;;4974922;28;20019;-80
2023/05/01 02:03:51;;;;;;;4.38;3.35;;;6.40;99.90;;;;;;4974931;28;20487;-80
2023/05/01 02:06:19;;;;;;;5.93;3.13;;;6.50;99.90;;;;;;4975947;28;20065;-80
2023/05/01 02:08:47;;;;;;;5.03;3.50;;;6.50;99.90;;;;;;4975740;28;20114;-79
2023/05/01 02:11:14;;;;;;;4.70;3.30;;;6.30;99.90;;;;;;4975946;28;20023;-80
2023/05/01 02:13:41;;;;;;;7.20;3.47;;;6.30;99.90;;;;;;4975946;28;20035;-79
2023/05/01 02:16:07;;;;;;;3.53;2.88;;;6.30;99.90;;;;;;4974567;28;20027;-80
2023/05/01 02:18:34;;;;;;;4.70;3.25;;;6.30;99.90;;;;;;4974270;28;20582;-80
2023/05/01 02:21:02;;;;;;;4.60;3.38;;;6.30;99.90;;;;;;4975833;28;20023;-79
2023/05/01 02:23:29;;;;;;;5.80;3.13;;;6.30;99.90;;;;;;4974354;28;20023;-79
2023/05/01 02:25:58;;;;;;;3.88;2.92;;;6.30;99.90;;;;;;4974267;28;20046;-80
2023/05/01 02:28:26;;;;;;;6.93;3.83;;;6.30;99.90;;;;;;4975336;28;20053;-79
2023/05/01 02:30:52;;;;;;;8.27;3.65;;;6.30;99.90;;;;;;4974635;28;20031;-80
2023/05/01 02:33:18;;;;;;;3.58;2.75;;;6.30;99.90;;;;;;4974169;28;20472;-78
2023/05/01 02:35:46;;;;;;;3.03;2.72;;;6.30;99.90;;;;;;4972594;28;20082;-79
2023/05/01 02:38:12;;;;;;;7.75;3.78;;;6.30;99.90;;;;;;4975107;28;20038;-79
2023/05/01 02:40:39;;;;;;;6.88;3.20;;;6.40;99.90;;;;;;4974135;28;20038;-79
2023/05/01 02:43:08;;;;;;;5.45;3.42;;;6.50;99.90;;;;;;4974209;28;20030;-80
2023/05/01 02:45:37;;;;;;;4.60;2.97;;;6.40;99.90;;;;;;4973832;28;20027;-80
2023/05/01 02:48:05;;;;;;;5.05;3.70;;;6.30;99.90;;;;;;4973607;28;20031;-79
2023/05/01 02:50:31;;;;;;;4.85;3.05;;;6.20;99.90;;;;;;4974128;28;20142;-79
2023/05/01 02:52:58;;;;;;;8.23;3.90;;;6.20;99.90;;;;;;4975410;28;20076;-79
2023/05/01 02:55:25;;;;;;;3.10;2.80;;;6.20;99.90;;;;;;4974947;28;20037;-79
2023/05/01 02:57:51;;;;;;;6.32;3.80;;;6.20;99.90;;;;;;4974914;28;20041;-79
2023/05/01 03:00:17;;;;;;;4.68;3.00;;;6.20;99.90;;;;;;4973974;28;20049;-79
2023/05/01 03:02:43;;;;;;;4.97;3.05;;;6.30;99.90;;;;;;4972963;28;20480;-80
2023/05/01 03:05:09;;;;;;;4.50;3.05;;;6.30;99.90;;;;;;4973605;28;20029;-80
2023/05/01 03:07:34;;;;;;;4.22;3.55;;;6.30;99.90;;;;;;4973569;28;20027;-80
2023/05/01 03:10:06;;;;;;;4.55;3.42;;;6.30;99.90;;;;;;4973932;28;20058;-82
2023/05/01 03:12:32;;;;;;;4.13;3.35;;;6.40;99.90;;;;;;4973786;28;20033;-81
2023/05/01 03:14:58;;;;;;;3.47;3.17;;;6.50;99.90;;;;;;4973563;28;20031;-81
2023/05/01 03:17:24;;;;;;;4.28;3.40;;;6.50;99.90;;;;;;4973295;28;20476;-81
2023/05/01 03:19:50;;;;;;;6.22;4.40;;;6.50;99.90;;;;;;4973732;28;20484;-80
2023/05/01 03:22:16;;;;;;;4.85;3.75;;;6.60;99.90;;;;;;4974642;28;20065;-80
2023/05/01 03:24:42;;;;;;;6.65;4.38;;;6.60;99.90;;;;;;4974573;28;20031;-80
2023/05/01 03:27:07;;;;;;;4.55;3.70;;;6.60;99.90;;;;;;4974667;28;20030;-80
2023/05/01 03:29:33;;;;;;;8.45;4.55;;;6.60;99.90;;;;;;4973094;28;20025;-80
2023/05/01 03:31:59;;;;;;;10.20;4.65;;;6.60;99.90;;;;;;4974447;28;20023;-80
2023/05/01 03:34:26;;;;;;;9.60;5.47;;;6.70;99.90;;;;;;4972246;28;20114;-80
2023/05/01 03:36:52;;;;;;;11.85;7.03;;;6.70;99.90;;;;;;4973149;28;20023;-80
2023/05/01 03:39:18;;;;;;;10.23;7.03;;;6.80;99.90;;;;;;4974075;28;20026;-80
2023/05/01 03:41:44;;;;;;;9.52;5.63;;;6.70;99.90;;;;;;4934243;23;1138035;-79
2023/05/01 03:44:09;;;;;;;6.28;3.63;;;6.70;99.90;;;;;;4953930;29;20097;-78
2023/05/01 03:46:35;;;;;;;4.53;3.28;;;6.80;99.90;;;;;;4953503;28;20030;-77
2023/05/01 03:49:01;;;;;;;6.90;3.50;;;6.90;99.90;;;;;;4953520;29;20480;-78
2023/05/01 03:51:26;;;;;;;4.90;3.15;;;6.80;99.90;;;;;;4953784;28;20122;-77
2023/05/01 03:53:55;;;;;;;4.55;3.42;;;6.80;99.90;;;;;;4952579;28;20118;-77
2023/05/01 03:56:21;;;;;;;6.13;3.45;;;6.80;99.90;;;;;;4953349;29;20065;-78
2023/05/01 03:58:46;;;;;;;4.07;3.28;;;6.80;99.90;;;;;;4953170;29;20066;-77
2023/05/01 04:01:13;;;;;;;3.85;3.00;;;6.90;99.90;;;;;;4954932;28;20027;-77
2023/05/01 04:03:39;;;;;;;5.60;3.17;;;6.90;99.90;;;;;;4952724;29;20499;-77
2023/05/01 04:06:05;;;;;;;6.40;3.75;;;6.90;99.90;;;;;;4954360;29;20167;-78
2023/05/01 04:08:30;;;;;;;5.13;3.42;;;6.90;99.90;;;;;;4953139;29;20027;-78
2023/05/01 04:10:56;;;;;;;6.50;2.88;;;6.90;99.90;;;;;;4954530;28;20046;-77
2023/05/01 04:13:22;;;;;;;4.20;3.30;;;6.90;99.90;;;;;;4953284;28;20039;-78
2023/05/01 04:15:47;;;;;;;3.83;3.13;;;6.90;99.90;;;;;;4954227;29;20034;-78
2023/05/01 04:18:13;;;;;;;4.82;3.30;;;7.00;99.90;;;;;;4952965;29;20373;-79
2023/05/01 04:20:41;;;;;;;5.65;3.50;;;7.00;99.90;;;;;;4953529;28;20024;-78
2023/05/01 04:23:08;;;;;;;3.60;3.20;;;7.10;99.90;;;;;;4953887;29;20090;-79
2023/05/01 04:25:35;;;;;;;6.68;5.32;;;7.20;99.90;;;;;;4953096;29;20106;-79
2023/05/01 04:28:01;;;;;;;7.70;4.00;;;7.20;99.90;;;;;;4954798;29;20055;-78
2023/05/01 04:30:26;;;;;;;5.40;3.50;;;7.30;99.90;;;;;;4954772;28;20035;-79
2023/05/01 04:32:52;;;;;;;4.60;4.15;;;7.40;99.90;;;;;;4955725;28;20122;-78
2023/05/01 04:35:18;;;;;;;4.57;3.60;;;7.50;99.90;;;;;;4956043;29;20038;-79
2023/05/01 04:37:44;;;;;;;6.53;2.97;;;7.60;99.90;;;;;;4955059;28;20023;-79
2023/05/01 04:40:10;;;;;;;3.60;3.25;;;7.70;99.90;;;;;;4954443;28;20027;-78
2023/05/01 04:42:36;;;;;;;7.10;3.97;;;7.80;99.90;;;;;;4954353;29;20098;-78
2023/05/01 04:45:03;;;;;;;6.10;3.00;;;7.80;99.90;;;;;;4953950;29;20420;-78
2023/05/01 04:47:28;;;;;;;9.32;4.90;;;7.90;99.90;;;;;;4952662;28;20038;-78
2023/05/01 04:49:54;;;;;;;4.95;3.85;;;8.00;99.90;;;;;;4954412;29;20027;-77
2023/05/01 04:52:20;;;;;;;6.05;3.30;;;8.00;99.90;;;;;;4952738;28;20041;-79
2023/05/01 04:54:45;;;;;;;4.03;2.90;;;8.10;99.90;;;;;;4953890;29;20400;-79
2023/05/01 04:57:11;;;;;;;4.25;3.80;;;8.30;99.90;;;;;;4953076;29;20034;-79
2023/05/01 04:59:37;;;;;;;5.13;3.83;;;8.20;99.90;;;;;;4953943;29;20020;-79
2023/05/01 05:02:03;;;;;;;4.43;3.92;;;8.30;99.90;;;;;;4952827;28;20082;-79
2023/05/01 05:04:29;;;;;;;3.95;3.25;;;8.30;99.90;;;;;;4951703;28;20031;-78
2023/05/01 05:06:54;;;;;;;3.67;2.70;;;8.40;99.90;;;;;;4952713;29;20020;-78
2023/05/01 05:09:20;;;;;;;5.95;3.20;;;8.50;99.90;;;;;;4953635;29;20086;-79
2023/05/01 05:11:46;;;;;;;4.57;3.75;;;8.50;99.90;;;;;;4954331;28;20031;-79
2023/05/01 05:14:11;;;;;;;4.65;3.47;;;8.60;99.90;;;;;;4952870;28;20110;-78
2023/05/01 05:16:37;;;;;;;4.75;2.85;;;8.60;99.90;;;;;;4952670;29;20440;-79
2023/05/01 05:19:02;;;;;;;4.82;3.53;;;8.70;99.90;;;;;;4954273;29;20535;-78
2023/05/01 05:21:28;;;;;;;4.45;2.97;;;8.70;99.90;;;;;;4952963;28;20028;-78
2023/05/01 05:23:54;;;;;;;3.22;2.90;;;8.80;99.90;;;;;;4954574;28;20034;-79
2023/05/01 05:26:19;;;;;;;3.88;3.28;;;8.90;99.90;;;;;;4957548;29;20028;-79
2023/05/01 05:28:45;;;;;;;6.22;3.67;;;9.00;99.90;;;;;;4958145;29;20480;-79
2023/05/01 05:31:10;;;;;;;5.07;2.47;;;8.90;99.90;;;;;;4959257;28;20136;-80
2023/05/01 05:33:36;;;;;;;2.88;2.58;;;8.90;99.90;;;;;;4960135;28;20030;-81
2023/05/01 05:36:02;;;;;;;4.10;3.13;;;9.00;99.90;;;;;;4958413;29;20033;-79
2023/05/01 05:38:28;;;;;;;5.93;3.40;;;9.10;99.90;;;;;;4962688;29;20027;-77
2023/05/01 05:40:53;;;;;;;2.80;2.55;;;9.20;99.90;;;;;;4963945;28;20039;-78
2023/05/01 05:43:19;;;;;;;4.78;2.97;;;9.30;99.90;;;;;;4963884;29;20457;-78
2023/05/01 05:45:45;;;;;;;3.75;3.20;;;9.40;99.90;;;;;;4964992;29;20439;-79
2023/05/01 05:48:11;;;;;;;2.97;2.67;;;9.50;99.90;;;;;;4966482;29;20023;-81
2023/05/01 05:50:36;;;;;;;3.92;3.50;;;9.60;99.90;;;;;;4964731;28;20023;-80
2023/05/01 05:53:02;;;;;;;6.30;3.03;;;9.60;99.90;;;;;;4962930;29;20027;-81
2023/05/01 05:55:28;;;;;;;8.35;3.20;;;9.70;99.90;;;;;;4965108;29;20433;-81
2023/05/01 05:57:53;;;;;;;3.40;2.63;;;9.80;99.90;;;;;;4965884;29;20492;-78
2023/05/01 06:00:19;;;;;;;5.43;2.80;;;9.80;99.90;;;;;;4961515;28;20467;-79
2023/05/01 06:02:45;;;;;;;6.72;3.40;;;9.80;99.90;;;;;;4956581;29;20164;-78
2023/05/01 06:05:11;;;;;;;4.35;2.97;;;9.90;99.90;;;;;;4955288;29;20365;-79
2023/05/01 06:07:36;;;;;;;4.38;2.60;;;9.90;99.90;;;;;;4956500;29;20050;-77
2023/05/01 06:10:05;;;;;;;3.80;3.13;;;9.90;99.90;;;;;;4955576;29;20027;-78
2023/05/01 06:12:31;;;;;;;4.60;2.92;;;9.90;99.90;;;;;;4956880;28;20023;-79
2023/05/01 06:14:59;;;;;;;10.38;3.08;;;10.00;99.90;;;;;;4953713;29;20035;-79
2023/05/01 06:17:25;;;;;;;4.15;3.58;;;10.20;99.90;;;;;;4954711;29;20028;-78
2023/05/01 06:19:52;;;;;;;8.30;4.15;;;10.20;99.90;;;;;;4956798;28;20088;-78
2023/05/01 06:22:20;;;;;;;5.70;3.90;;;10.40;99.90;;;;;;4955152;29;20046;-79
2023/05/01 06:24:46;;;;;;;3.20;2.80;;;10.50;99.90;;;;;;4956393;29;20019;-80
2023/05/01 06:27:12;;;;;;;4.03;2.95;;;10.60;99.90;;;;;;4956214;28;20083;-79
2023/05/01 06:29:38;;;;;;;5.38;2.65;;;10.70;99.90;;;;;;4954878;29;20047;-79
2023/05/01 06:32:04;;;;;;;4.70;3.47;;;10.70;99.90;;;;;;4955285;29;20087;-78
2023/05/01 06:34:30;;;;;;;6.85;2.70;;;10.80;99.90;;;;;;4955007;29;20564;-79
2023/05/01 06:36:55;;;;;;;8.50;2.90;;;10.80;99.90;;;;;;4953941;28;20114;-79
2023/05/01 06:39:21;;;;;;;3.50;2.65;;;10.90;99.90;;;;;;4954829;29;20050;-78
2023/05/01 06:41:47;;;;;;;5.20;2.75;;;10.90;99.90;;;;;;4955280;29;20098;-78
2023/05/01 06:44:14;;;;;;;4.45;2.90;;;11.00;99.90;;;;;;4956517;28;20027;-78
2023/05/01 06:46:39;;;;;;;3.70;2.53;;;11.10;99.90;;;;;;4955853;29;20031;-78
2023/05/01 06:49:05;;;;;;;3.17;2.47;;;11.20;99.90;;;;;;4946414;29;20034;-77
2023/05/01 06:51:31;;;;;;;2.83;2.60;;;11.30;99.90;;;;;;4947085;29;20038;-82
2023/05/01 06:53:57;;;;;;;6.20;2.92;;;11.40;99.90;;;;;;4945687;29;20039;-80
2023/05/01 06:56:23;;;;;;;4.78;2.80;;;11.70;99.90;;;;;;4945510;29;20524;-80
2023/05/01 06:58:48;;;;;;;3.65;2.67;;;12.10;99.90;;;;;;4947315;29;20027;-82
2023/05/01 07:01:15;;;;;;;3.05;2.72;;;12.10;99.90;;;;;;4949690;29;20465;-81
2023/05/01 07:03:41;;;;;;;6.90;2.58;;;12.20;99.70;;;;;;4949113;29;20020;-82
2023/05/01 07:06:06;;;;;;;4.32;3.85;;;13.30;99.90;;;;;;4948096;29;20020;-78
2023/05/01 07:08:32;;;;;;;4.28;2.63;;;13.30;94.90;;;;;;4936436;29;20516;-78
2023/05/01 07:10:58;;;;;;;6.30;2.75;;;13.40;94.30;;;;;;4937110;29;20028;-79
2023/05/01 07:13:23;;;;;;;2.42;2.22;;;13.50;93.20;;;;;;4937246;29;20028;-78
2023/05/01 07:15:49;;;;;;;3.20;2.60;;;13.50;92.80;;;;;;4933911;29;20401;-80
2023/05/01 07:18:16;;;;;;;3.22;2.55;;;13.70;92.10;;;;;;4936320;29;20027;-80
2023/05/01 07:20:42;;;;;;;8.27;2.55;;;13.90;92.20;;;;;;4937236;29;20027;-78
2023/05/01 07:23:08;;;;;;;3.97;2.65;;;13.90;91.70;;;;;;4936205;29;20043;-79
2023/05/01 07:25:36;;;;;;;3.78;2.70;;;13.90;91.90;;;;;;4937590;29;20078;-78
2023/05/01 07:28:04;;;;;;;3.65;2.65;;;13.80;92.30;;;;;;4936979;29;20026;-81
2023/05/01 07:30:31;;;;;;;4.35;2.83;;;14.20;93.70;;;;;;4937529;29;20107;-78
2023/05/01 07:32:57;;;;;;;3.33;2.42;;;14.30;92.30;;;;;;4935812;29;20027;-79
2023/05/01 07:35:23;;;;;;;5.38;2.78;;;14.40;92.20;;;;;;4935072;29;20047;-78
2023/05/01 07:37:53;;;;;;;3.63;3.05;;;14.40;92.10;;;;;;4936794;29;20557;-76
2023/05/01 07:40:19;;;;;;;3.25;2.45;;;14.60;92.10;;;;;;4935291;29;20030;-77
2023/05/01 07:42:45;;;;;;;4.28;2.75;;;14.90;92.00;;;;;;4935842;29;20477;-82
2023/05/01 07:45:11;;;;;;;5.55;2.50;;;15.30;91.40;;;;;;4936953;29;20106;-78
2023/05/01 07:47:36;;;;;;;3.58;2.45;;;15.50;90.20;;;;;;4936691;29;20082;-79
2023/05/01 07:50:03;;;;;;;3.08;2.35;;;15.70;88.60;;;;;;4936617;29;20404;-78
2023/05/01 07:52:29;;;;;;;5.22;2.63;;;15.80;88.90;;;;;;4936918;29;20019;-79
2023/05/01 07:54:55;;;;;;;4.10;2.60;;;16.00;89.00;;;;;;4936791;29;20408;-77
2023/05/01 07:57:22;;;;;;;4.55;2.47;;;16.10;88.30;;;;;;4936118;29;20031;-78
2023/05/01 07:59:52;;;;;;;3.78;2.75;;;16.10;87.10;;;;;;4935232;29;20028;-78
2023/05/01 08:02:17;;;;;;;5.88;2.78;;;15.90;87.40;;;;;;4936383;29;20016;-77
2023/05/01 08:04:44;;;;;;;5.60;3.17;;;15.70;87.80;;;;;;4936124;29;20110;-79
2023/05/01 08:07:10;;;;;;;4.78;4.15;;;15.70;88.00;;;;;;4936383;29;20020;-78
2023/05/01 08:09:36;;;;;;;2.33;2.13;;;15.70;88.90;;;;;;4936017;29;20038;-76
2023/05/01 08:12:02;;;;;;;23.90;3.13;;;15.60;86.90;;;;;;4935528;29;20024;-79
2023/05/01 08:14:28;;;;;;;15.07;7.85;;;15.80;86.90;;;;;;4935578;29;20421;-79
2023/05/01 08:16:54;;;;;;;4.78;3.30;;;15.70;84.90;;;;;;4935354;29;20023;-78
2023/05/01 08:19:20;;;;;;;4.45;2.75;;;15.90;86.20;;;;;;4935576;29;20032;-80
2023/05/01 08:21:46;;;;;;;5.43;3.67;;;15.70;86.70;;;;;;4936203;29;20051;-79
2023/05/01 08:24:11;;;;;;;2.97;2.15;;;15.80;87.90;;;;;;4937915;29;20441;-79
2023/05/01 08:26:37;;;;;;;3.65;2.70;;;15.90;87.40;;;;;;4937723;29;20028;-80
2023/05/01 08:29:03;;;;;;;2.00;1.70;;;15.90;86.70;;;;;;4939387;29;20496;-83
2023/05/01 08:31:28;;;;;;;5.03;2.45;;;16.00;83.80;;;;;;4940294;29;20083;-78
2023/05/01 08:33:54;;;;;;;3.10;2.45;;;16.20;83.70;;;;;;4938427;29;20023;-79
2023/05/01 08:36:20;;;;;;;3.53;2.38;;;16.20;84.10;;;;;;4939339;29;20031;-78
2023/05/01 08:38:45;;;;;;;4.88;1.95;;;16.00;84.40;;;;;;4935735;29;20032;-79
2023/05/01 08:41:15;;;;;;;3.15;2.00;;;16.00;83.20;;;;;;4934126;29;20031;-76
2023/05/01 08:43:42;;;;;;;4.03;3.22;;;16.10;85.50;;;;;;4934901;29;20027;-77
2023/05/01 08:46:10;;;;;;;3.40;1.95;;;16.30;84.60;;;;;;4934075;29;20028;-77
2023/05/01 08:48:39;;;;;;;2.97;2.38;;;16.40;83.10;;;;;;4933652;29;20051;-76
2023/05/01 08:51:05;;;;;;;5.13;2.38;;;16.60;82.80;;;;;;4934453;29;20555;-76
2023/05/01 08:53:32;;;;;;;5.43;3.22;;;16.70;81.40;;;;;;4934587;29;20118;-77
2023/05/01 08:55:59;;;;;;;2.92;2.40;;;16.80;83.10;;;;;;4935372;29;20024;-77
2023/05/01 08:58:27;;;;;;;5.95;2.50;;;16.90;80.30;;;;;;4935018;29;20469;-79
2023/05/01 09:00:56;;;;;;;2.55;2.00;;;16.90;82.10;;;;;;4938853;29;20027;-79
2023/05/01 09:03:22;;;;;;;2.70;2.22;;;16.90;80.40;;;;;;4938681;29;20031;-79
2023/05/01 09:05:49;;;;;;;3.10;1.67;;;16.80;80.20;;;;;;4938326;29;20024;-81
2023/05/01 09:08:14;;;;;;;2.00;1.85;;;16.80;79.70;;;;;;4937911;29;20386;-77
2023/05/01 09:10:45;;;;;;;2.78;1.90;;;16.70;80.10;;;;;;4940746;29;20023;-80
2023/05/01 09:13:11;;;;;;;2.42;1.42;;;16.80;78.60;;;;;;4940061;29;20036;-79
2023/05/01 09:15:37;;;;;;;6.68;2.10;;;16.80;79.90;;;;;;4937324;29;20032;-79
2023/05/01 09:18:03;;;;;;;1.67;1.58;;;16.80;82.60;;;;;;4939587;29;20031;-79
2023/05/01 09:20:29;;;;;;;2.08;1.80;;;16.80;79.00;;;;;;4938463;29;20020;-79
2023/05/01 09:22:58;;;;;;;2.47;2.10;;;17.10;81.10;;;;;;4938263;29;20079;-81
2023/05/01 09:25:38;;;;;;;5.00;1.45;;;17.70;79.70;;;;;;4937595;29;20080;-81
2023/05/01 09:28:05;;;;;;;1.88;1.55;;;18.00;82.80;;;;;;4940079;29;20024;-82
2023/05/01 09:30:32;;;;;;;2.90;1.77;;;18.10;78.50;;;;;;4938630;29;20031;-80
2023/05/01 09:33:05;;;;;;;2.10;1.90;;;18.20;80.40;;;;;;4937988;29;20035;-81
2023/05/01 09:35:31;;;;;;;1.80;1.63;;;18.10;77.70;;;;;;4937819;29;20036;-83
2023/05/01 09:37:57;;;;;;;1.67;1.58;;;18.20;78.40;;;;;;4939569;29;20019;-82
2023/05/01 09:40:26;;;;;;;2.33;2.00;;;18.40;76.90;;;;;;4937082;29;20024;-81
2023/05/01 09:42:54;;;;;;;2.28;1.85;;;18.40;76.10;;;;;;4942017;29;20027;-79
2023/05/01 09:45:22;;;;;;;1.42;1.33;;;18.60;75.20;;;;;;4963226;28;20027;-79
2023/05/01 09:47:47;;;;;;;2.22;1.50;;;18.80;75.10;;;;;;4967389;28;20407;-78
2023/05/01 09:50:33;;;;;;;1.55;1.45;;;18.80;75.20;;;;;;4975491;28;20030;-79
2023/05/01 09:53:04;;;;;;;2.10;1.48;;;18.70;74.70;;;;;;4962249;28;20050;-78
2023/05/01 09:55:29;;;;;;;2.50;1.80;;;18.70;74.40;;;;;;4976358;28;20034;-80
2023/05/01 09:57:57;;;;;;;4.20;1.63;;;18.50;75.10;;;;;;4977007;28;20033;-78
2023/05/01 10:00:23;;;;;;;1.40;1.30;;;18.60;75.20;;;;;;4977338;28;20361;-80
2023/05/01 10:02:50;;;;;;;1.60;1.48;;;18.50;74.00;;;;;;4977446;28;20416;-79
2023/05/01 10:05:16;;;;;;;3.28;1.52;;;18.40;73.40;;;;;;4974996;28;20018;-81
2023/05/01 10:07:58;;;;;;;1.90;1.60;;;18.40;74.80;;;;;;4956588;29;20031;-80
2023/05/01 10:10:24;;;;;;;4.47;1.77;;;18.50;74.00;;;;;;4973583;28;20041;-79
2023/05/01 10:12:50;;;;;;;1.88;1.50;;;18.50;74.20;;;;;;4975972;28;20022;-78
2023/05/01 10:15:16;;;;;;;3.05;1.52;;;18.60;72.30;;;;;;4976759;28;20383;-81
2023/05/01 10:17:43;;;;;;;1.80;1.67;;;18.70;71.70;;;;;;4975181;28;20038;-78
2023/05/01 10:20:12;;;;;;;2.13;1.95;;;18.90;72.40;;;;;;4976652;28;20027;-78
2023/05/01 10:22:41;;;;;;;1.60;1.40;;;19.10;73.50;;;;;;4976093;28;20089;-78
2023/05/01 10:25:09;;;;;;;1.20;1.10;;;19.30;70.60;;;;;;4975187;28;20023;-78
2023/05/01 10:27:36;;;;;;;3.10;1.65;;;19.50;71.10;;;;;;4963106;28;20114;-78
2023/05/01 10:30:06;;;;;;;3.10;1.50;;;19.60;69.70;;;;;;4953576;28;20452;-77
2023/05/01 10:32:32;;;;;;;2.45;1.52;;;19.40;70.50;;;;;;4937460;29;20135;-77
2023/05/01 10:35:03;;;;;;;1.50;1.35;;;19.40;69.40;;;;;;4944521;29;20028;-78
2023/05/01 10:37:34;;;;;;;1.50;1.40;;;19.30;69.80;;;;;;4951003;29;20035;-79
2023/05/01 10:40:20;;;;;;;2.88;1.45;;;18.80;69.60;;;;;;4956817;28;20606;-79
2023/05/01 10:43:16;;;;;;;3.38;1.33;;;18.50;71.00;;;;;;4948002;28;20512;-77
2023/05/01 10:45:47;;;;;;;2.22;1.63;;;18.90;72.50;;;;;;4953835;28;20041;-78
2023/05/01 10:48:39;;;;;;;2.00;1.35;;;19.00;71.30;;;;;;4951533;28;20038;-80
2023/05/01 10:51:09;;;;;;;2.53;1.65;;;19.00;70.30;;;;;;4942774;28;20114;-78
2023/05/01 10:53:36;;;;;;;4.07;1.33;;;18.70;71.30;;;;;;4960341;28;20038;-79
2023/05/01 10:56:04;;;;;;;1.98;1.27;;;18.80;72.10;;;;;;4957917;28;20026;-78
2023/05/01 10:58:36;;;;;;;2.25;1.30;;;19.00;72.70;;;;;;4946656;29;20531;-77
2023/05/01 11:01:26;;;;;;;1.85;1.52;;;19.30;72.30;;;;;;4951581;28;20030;-77
2023/05/01 11:03:53;;;;;;;3.85;2.85;;;19.50;71.00;;;;;;4957415;28;20030;-79
2023/05/01 11:06:19;;;;;;;2.08;1.83;;;19.70;70.30;;;;;;4942969;28;20042;-79
2023/05/01 11:08:46;;;;;;;2.50;1.60;;;19.60;70.30;;;;;;4964138;28;20506;-77
2023/05/01 11:11:20;;;;;;;2.45;1.80;;;19.70;70.60;;;;;;4946334;29;20035;-78
2023/05/01 11:13:58;;;;;;;2.53;1.50;;;19.60;69.30;;;;;;4944768;29;20378;-77
2023/05/01 11:16:36;;;;;;;1.75;1.50;;;19.50;69.30;;;;;;4948391;28;20027;-77
2023/05/01 11:19:08;;;;;;;1.55;1.30;;;19.60;67.90;;;;;;4968814;28;20515;-78
2023/05/01 11:21:35;;;;;;;3.40;1.70;;;19.20;70.00;;;;;;4949457;28;20039;-79
2023/05/01 11:24:02;;;;;;;3.20;1.38;;;19.10;68.60;;;;;;4959889;28;20022;-79
2023/05/01 11:26:29;;;;;;;1.85;1.38;;;19.20;68.90;;;;;;4956736;28;20019;-79
2023/05/01 11:28:57;;;;;;;2.45;1.35;;;19.10;68.40;;;;;;4953392;29;20023;-80
2023/05/01 11:31:25;;;;;;;1.85;1.70;;;19.20;71.80;;;;;;4942857;28;20079;-80
2023/05/01 11:33:52;;;;;;;3.88;1.58;;;19.30;70.40;;;;;;4937180;29;20551;-80
2023/05/01 11:36:19;;;;;;;2.17;1.65;;;19.30;69.40;;;;;;4934316;29;20036;-82
2023/05/01 11:38:52;;;;;;;2.10;1.20;;;19.40;69.20;;;;;;4934841;29;20114;-79
2023/05/01 11:41:22;;;;;;;2.88;1.58;;;19.60;70.40;;;;;;4941377;29;20042;-79
2023/05/01 11:43:55;;;;;;;1.75;1.63;;;19.60;69.50;;;;;;4954454;28;20027;-80
2023/05/01 11:46:31;;;;;;;1.48;1.38;;;19.90;69.20;;;;;;4955147;29;20460;-79
2023/05/01 11:49:00;;;;;;;1.23;1.13;;;20.10;68.70;;;;;;4955138;29;20038;-79
2023/05/01 11:51:27;;;;;;;4.57;2.40;;;20.10;67.70;;;;;;4952442;28;20034;-79
2023/05/01 11:54:05;;;;;;;2.08;1.30;;;19.90;65.50;;;;;;4954320;28;20031;-79
2023/05/01 11:56:33;;;;;;;1.30;1.20;;;19.80;66.60;;;;;;4953537;28;20031;-79
2023/05/01 11:59:08;;;;;;;5.85;1.17;;;19.70;66.00;;;;;;4953748;29;20055;-80
2023/05/01 12:01:35;;;;;;;;;;;19.70;66.60;;;;;;4954444;29;20518;-79
2023/05/01 12:04:02;;;;;;;1.60;1.45;;;19.50;66.60;;;;;;4953890;29;19910;-79
2023/05/01 12:06:44;;;;;;;2.67;1.67;;;19.60;67.60;;;;;;4953245;29;20019;-80
2023/05/01 12:09:15;;;;;;;1.30;1.30;;;19.80;68.00;;;;;;4953340;29;20126;-80
2023/05/01 12:11:41;;;;;;;2.45;1.65;;;19.90;65.20;;;;;;4954898;28;20078;-80
2023/05/01 12:14:08;;;;;;;1.50;1.30;;;19.80;65.20;;;;;;4953793;29;20122;-79
2023/05/01 12:16:34;;;;;;;2.00;1.40;;;19.70;66.20;;;;;;4954292;28;20496;-79
2023/05/01 12:19:01;;;;;;;2.03;1.63;;;19.80;66.80;;;;;;4953291;29;20031;-81
2023/05/01 12:21:27;;;;;;;1.90;1.45;;;20.00;67.90;;;;;;4963037;28;20023;-80
2023/05/01 12:23:53;;;;;;;1.00;1.00;;;20.00;66.60;;;;;;4965041;29;20066;-81
2023/05/01 12:26:26;;;;;;;1.23;1.13;;;19.90;67.10;;;;;;4963403;29;20031;-79
2023/05/01 12:28:57;;;;;;;0.93;0.93;;;20.00;66.60;;;;;;4953290;28;20058;-80
2023/05/01 12:31:24;;;;;;;1.35;1.25;;;19.90;66.00;;;;;;4954393;28;20027;-81
2023/05/01 12:34:04;;;;;;;0.98;0.98;;;20.00;66.50;;;;;;4954196;28;20042;-81
2023/05/01 12:36:32;;;;;;;2.70;1.20;;;20.10;67.10;;;;;;4953293;28;20050;-79
2023/05/01 12:39:03;;;;;;;1.38;1.25;;;19.90;65.50;;;;;;4955639;29;20034;-81
2023/05/01 12:41:36;;;;;;;1.88;1.20;;;19.70;65.40;;;;;;4956464;28;20031;-78
2023/05/01 12:44:23;;;;;;;2.42;1.33;;;19.90;66.40;;;;;;4952937;28;20027;-78
2023/05/01 12:47:06;;;;;;;1.45;1.25;;;19.90;65.40;;;;;;4954225;28;20051;-78
2023/05/01 12:49:35;;;;;;;4.47;1.25;;;19.80;66.70;;;;;;4953606;29;20111;-80
2023/05/01 12:52:02;;;;;;;1.67;1.20;;;19.80;67.50;;;;;;4954335;28;20028;-78
2023/05/01 12:54:39;;;;;;;2.25;1.25;;;19.70;67.20;;;;;;4953053;29;20039;-78
2023/05/01 12:57:10;;;;;;;2.00;1.35;;;19.60;67.10;;;;;;4953931;29;20027;-80